Time;durP1;ratioP1;P1;durP2;ratioP2;P2;SDS_P1;SDS_P2;PMS_P1;PMS_P2;Temp;Humidity;BMP_temperature;BMP_pressure;BME280_temperature;BME280_humidity;BME280_pressure;Samples;Min_cycle;Max_cycle;Signal;HPM_P1;HPM_P2
2021/10/21 00:01:45;;;;;;;12.63;10.58;;;;;;;13.12;51.00;100122.86;1669461;84;20997;-59
2021/10/21 00:04:12;;;;;;;14.25;9.60;;;;;;;13.07;51.17;100115.97;1675956;84;21076;-60
2021/10/21 00:06:39;;;;;;;16.73;10.88;;;;;;;13.01;51.35;100114.43;1676048;84;21060;-58
2021/10/21 00:09:06;;;;;;;12.13;10.65;;;;;;;12.97;51.43;100114.55;1676336;84;21126;-58
2021/10/21 00:11:33;;;;;;;14.85;10.40;;;;;;;12.94;51.50;100108.80;1675072;82;21265;-59
2021/10/21 00:14:00;;;;;;;13.50;10.18;;;;;;;12.91;51.62;100109.23;1671738;84;21833;-58
2021/10/21 00:16:29;;;;;;;12.53;9.85;;;;;;;12.84;51.86;100106.56;1672051;84;21077;-60
2021/10/21 00:18:56;;;;;;;16.57;10.38;;;;;;;12.80;51.94;100106.67;1641811;85;21029;-61
2021/10/21 00:21:22;;;;;;;14.50;10.58;;;;;;;12.75;52.01;100101.96;1651811;84;21141;-59
2021/10/21 00:23:49;;;;;;;17.20;10.78;;;;;;;12.72;52.19;100101.55;1644483;85;21045;-59
2021/10/21 00:26:16;;;;;;;12.63;10.60;;;;;;;12.65;52.40;100100.21;1642002;85;21045;-59
2021/10/21 00:28:41;;;;;;;;;;;;;;;12.62;52.46;100094.77;1647691;85;21060;-59
2021/10/21 00:31:08;;;;;;;15.00;11.93;;;;;;;12.58;52.69;100093.55;1640707;85;20131;-58
2021/10/21 00:33:35;;;;;;;;;;;;;;;12.49;52.94;100093.95;1642783;85;21061;-59
2021/10/21 00:36:02;;;;;;;16.05;11.38;;;;;;;12.42;53.20;100090.77;1645472;85;20583;-58
2021/10/21 00:38:28;;;;;;;17.37;10.53;;;;;;;12.35;53.41;100089.94;1641811;85;21464;-58
2021/10/21 00:40:54;;;;;;;14.85;11.43;;;;;;;11.99;53.40;100018.23;1639772;85;21065;-57
2021/10/21 00:43:21;;;;;;;11.45;10.05;;;;;;;12.33;53.58;100076.48;1635721;85;21121;-59
2021/10/21 00:45:50;;;;;;;14.50;11.63;;;;;;;12.30;53.74;100074.22;1626852;86;21860;-60
2021/10/21 00:48:16;;;;;;;15.23;11.80;;;;;;;12.27;53.78;100073.60;1632175;85;21884;-59
2021/10/21 00:50:42;;;;;;;12.88;11.45;;;;;;;12.24;53.92;100058.00;1631411;85;21363;-58
2021/10/21 00:53:10;;;;;;;15.30;11.70;;;;;;;12.23;54.00;100053.67;1630320;85;21053;-59
2021/10/21 00:55:37;;;;;;;16.12;10.75;;;;;;;12.21;54.02;100045.04;1628657;85;21317;-60
2021/10/21 00:58:04;;;;;;;17.77;12.05;;;;;;;12.19;54.12;100047.10;1630714;87;21952;-59
2021/10/21 01:00:33;;;;;;;22.87;11.78;;;;;;;12.19;54.21;100045.77;1626884;86;21181;-59
2021/10/21 01:02:59;;;;;;;18.12;11.68;;;;;;;12.18;54.19;100050.78;1620190;87;21135;-57
2021/10/21 01:05:25;;;;;;;;;;;;;;;12.16;54.33;100042.16;1624299;86;21136;-58
2021/10/21 01:07:53;;;;;;;15.43;11.80;;;;;;;12.16;54.34;100034.14;1640809;86;20204;-58
2021/10/21 01:10:19;;;;;;;14.55;10.63;;;;;;;12.07;54.65;100041.56;1622319;86;21346;-59
2021/10/21 01:12:46;;;;;;;;;;;;;;;12.06;54.71;100041.76;1646921;85;21016;-57
2021/10/21 01:15:28;;;;;;;20.25;10.70;;;;;;;12.04;54.81;100035.28;1638586;86;20613;-58
2021/10/21 01:17:55;;;;;;;13.50;10.73;;;;;;;11.98;54.99;100033.44;1635723;86;21403;-57
2021/10/21 01:20:24;;;;;;;13.68;12.07;;;;;;;11.97;55.10;100032.30;1633753;86;21065;-57
2021/10/21 01:22:50;;;;;;;13.43;11.00;;;;;;;11.96;55.00;100027.97;1653164;83;21356;-56
2021/10/21 01:25:17;;;;;;;17.67;11.88;;;;;;;11.95;55.11;100040.52;1689139;83;21049;-58
2021/10/21 01:27:45;;;;;;;13.37;11.93;;;;;;;11.95;55.18;100021.00;1682934;83;21148;-57
2021/10/21 01:30:27;;;;;;;17.05;12.00;;;;;;;11.93;55.18;100033.74;1679823;83;21288;-59
2021/10/21 01:32:56;;;;;;;23.07;11.43;;;;;;;11.91;55.31;100029.12;1684055;83;20976;-58
2021/10/21 01:35:23;;;;;;;21.77;12.18;;;;;;;11.91;55.40;100022.44;1647109;85;21276;-58
2021/10/21 01:37:51;;;;;;;;;;;;;;;11.82;55.43;100019.92;1662776;85;21456;-57
2021/10/21 01:40:19;;;;;;;18.30;12.70;;;;;;;11.82;55.46;100015.10;1652750;85;20212;-57
2021/10/21 01:42:50;;;;;;;16.47;11.50;;;;;;;11.78;55.66;100012.02;1652852;85;21369;-58
2021/10/21 01:45:21;;;;;;;18.67;12.10;;;;;;;11.79;55.73;100017.68;1657814;85;21299;-58
2021/10/21 01:47:49;;;;;;;16.55;11.48;;;;;;;11.80;55.75;100018.49;1650671;85;21053;-57
2021/10/21 01:50:16;;;;;;;14.13;12.30;;;;;;;11.77;55.94;100005.05;1658854;85;21020;-58
2021/10/21 01:52:43;;;;;;;16.10;12.60;;;;;;;11.72;56.10;99998.16;1657232;85;21326;-58
2021/10/21 01:55:11;;;;;;;13.83;11.40;;;;;;;11.71;56.09;99997.83;1650586;85;21083;-57
2021/10/21 01:57:39;;;;;;;13.00;11.33;;;;;;;11.68;56.19;99988.39;1663560;84;21032;-58
2021/10/21 02:00:10;;;;;;;13.83;11.07;;;;;;;11.63;56.38;99986.84;1599484;87;21050;-58
2021/10/21 02:02:38;;;;;;;14.67;11.20;;;;;;;11.62;56.36;99979.03;1604465;88;21337;-56
2021/10/21 02:05:06;;;;;;;18.37;11.60;;;;;;;11.59;56.47;99985.61;1606246;87;21436;-58
2021/10/21 02:07:33;;;;;;;13.97;11.40;;;;;;;11.58;56.55;99992.48;1580553;89;21451;-57
2021/10/21 02:09:59;;;;;;;16.42;12.37;;;;;;;11.55;56.69;99995.05;1576726;89;21106;-58
2021/10/21 02:12:25;;;;;;;16.63;11.93;;;;;;;11.55;56.64;99992.38;1614335;87;21125;-59
2021/10/21 02:14:51;;;;;;;13.83;10.25;;;;;;;11.21;56.76;99940.80;1653778;85;21053;-57
2021/10/21 02:17:22;;;;;;;16.32;11.48;;;;;;;11.50;56.90;99984.16;1651510;85;21009;-58
2021/10/21 02:19:46;;;;;;;12.77;10.80;;;;;;;11.47;56.99;99977.87;1654614;85;21887;-58
2021/10/21 02:22:12;;;;;;;14.98;10.85;;;;;;;11.44;57.01;99983.64;1618752;87;21926;-57
2021/10/21 02:24:38;;;;;;;19.48;12.15;;;;;;;11.41;57.22;99988.03;1606352;88;21056;-59
2021/10/21 02:27:04;;;;;;;13.38;10.72;;;;;;;11.40;57.22;99983.22;1654810;85;21010;-58
2021/10/21 02:29:30;;;;;;;16.57;11.93;;;;;;;11.39;57.28;99977.56;1655762;85;21072;-58
2021/10/21 02:31:57;;;;;;;15.65;11.50;;;;;;;11.36;57.45;99967.80;1676211;84;21909;-58
2021/10/21 02:34:23;;;;;;;15.75;11.75;;;;;;;11.34;57.48;99969.36;1652694;85;21290;-57
2021/10/21 02:36:49;;;;;;;16.67;12.53;;;;;;;11.29;57.70;99973.14;1653717;85;21065;-58
2021/10/21 02:39:15;;;;;;;19.82;12.47;;;;;;;11.25;57.86;99965.23;1654146;85;21068;-57
2021/10/21 02:41:41;;;;;;;15.93;11.95;;;;;;;11.23;57.92;99976.10;1651492;85;21140;-59
2021/10/21 02:44:07;;;;;;;20.60;13.85;;;;;;;11.20;58.06;99971.67;1653002;84;21878;-60
2021/10/21 02:46:33;;;;;;;14.15;12.47;;;;;;;11.17;58.11;99962.73;1654065;85;21081;-58
2021/10/21 02:48:59;;;;;;;19.12;12.28;;;;;;;11.15;58.10;99969.63;1654190;85;21022;-57
2021/10/21 02:51:27;;;;;;;18.37;11.20;;;;;;;11.14;58.24;99965.82;1654178;85;21818;-58
2021/10/21 02:53:55;;;;;;;16.35;13.00;;;;;;;11.11;58.53;99969.69;1653462;85;21048;-58
2021/10/21 02:56:20;;;;;;;15.13;13.13;;;;;;;11.10;58.42;99957.39;1647492;85;21775;-57
2021/10/21 02:58:47;;;;;;;16.70;12.10;;;;;;;11.08;58.54;99944.77;1645426;85;21831;-58
2021/10/21 03:01:13;;;;;;;16.48;13.40;;;;;;;11.01;58.89;99959.41;1654727;85;21100;-59
2021/10/21 03:03:40;;;;;;;14.53;11.27;;;;;;;11.00;58.94;99949.78;1653851;85;21084;-57
2021/10/21 03:06:07;;;;;;;18.37;13.53;;;;;;;10.99;58.97;99956.64;1653822;85;21074;-59
2021/10/21 03:08:34;;;;;;;17.55;13.32;;;;;;;10.96;59.14;99946.36;1654045;85;21124;-59
2021/10/21 03:11:02;;;;;;;17.67;13.47;;;;;;;10.91;59.34;99953.64;1652829;85;21751;-59
2021/10/21 03:13:28;;;;;;;;;;;;;;;10.84;59.64;99953.61;1655490;85;21742;-58
2021/10/21 03:15:54;;;;;;;17.13;13.37;;;;;;;10.85;59.57;99961.08;1653247;85;20577;-58
2021/10/21 03:18:20;;;;;;;17.82;13.55;;;;;;;10.76;59.86;99948.98;1652144;85;21320;-58
2021/10/21 03:20:47;;;;;;;17.10;14.70;;;;;;;10.74;59.99;99945.17;1653628;85;21389;-58
2021/10/21 03:23:13;;;;;;;18.95;13.95;;;;;;;10.75;59.89;99940.13;1648414;85;21148;-58
2021/10/21 03:25:41;;;;;;;16.97;14.20;;;;;;;10.74;60.02;99939.84;1654077;85;21065;-58
2021/10/21 03:28:06;;;;;;;17.50;14.25;;;;;;;10.75;60.11;99945.98;1648925;85;21045;-59
2021/10/21 03:30:33;;;;;;;18.48;14.80;;;;;;;10.72;60.16;99944.55;1654026;85;21336;-57
2021/10/21 03:32:59;;;;;;;17.00;14.98;;;;;;;10.72;60.13;99941.88;1651611;85;21054;-58
2021/10/21 03:35:25;;;;;;;18.85;14.50;;;;;;;10.71;60.26;99938.89;1653983;85;21767;-57
2021/10/21 03:37:51;;;;;;;19.37;15.72;;;;;;;10.70;60.39;99939.93;1651151;85;21137;-56
2021/10/21 03:40:17;;;;;;;16.50;14.33;;;;;;;10.67;60.49;99925.14;1653914;85;21134;-57
2021/10/21 03:42:43;;;;;;;19.42;15.80;;;;;;;10.61;60.51;99916.61;1653787;85;21348;-57
2021/10/21 03:45:09;;;;;;;19.15;15.78;;;;;;;10.65;60.57;99921.04;1653663;85;21021;-57
2021/10/21 03:47:37;;;;;;;19.40;15.30;;;;;;;10.64;60.63;99920.22;1653530;85;21397;-58
2021/10/21 03:50:04;;;;;;;18.62;16.15;;;;;;;10.51;60.98;99903.66;1667979;85;21050;-57
2021/10/21 03:52:30;;;;;;;22.17;17.93;;;;;;;10.56;61.02;99907.05;1663662;85;21842;-60
2021/10/21 03:54:56;;;;;;;17.02;14.60;;;;;;;10.54;61.07;99914.94;1657059;85;21416;-57
2021/10/21 03:57:22;;;;;;;17.00;13.32;;;;;;;10.55;61.06;99906.75;1645814;83;21047;-58
2021/10/21 03:59:49;;;;;;;;;;;;;;;10.64;60.95;99917.56;1681228;85;21070;-58
2021/10/21 04:02:15;;;;;;;20.40;16.20;;;;;;;10.66;60.83;99910.19;1677513;84;20522;-57
2021/10/21 04:04:41;;;;;;;20.32;16.25;;;;;;;10.58;61.03;99901.53;1681771;84;21954;-59
2021/10/21 04:07:07;;;;;;;20.60;16.15;;;;;;;10.55;61.23;99905.42;1681890;84;21087;-59
2021/10/21 04:09:33;;;;;;;20.52;15.38;;;;;;;10.54;61.29;99886.44;1681694;84;21024;-59
2021/10/21 04:11:59;;;;;;;22.82;15.85;;;;;;;10.47;61.61;99874.93;1667644;82;21034;-59
2021/10/21 04:14:26;;;;;;;19.32;16.15;;;;;;;10.48;61.44;99884.06;1641603;85;21118;-57
2021/10/21 04:16:52;;;;;;;26.63;16.53;;;;;;;10.48;61.42;99878.73;1624879;85;21085;-59
2021/10/21 04:19:18;;;;;;;18.98;15.72;;;;;;;10.49;61.41;99870.22;1635242;85;21169;-57
2021/10/21 04:21:44;;;;;;;23.12;15.58;;;;;;;10.46;61.63;99875.97;1646253;85;21859;-57
2021/10/21 04:24:11;;;;;;;17.95;14.53;;;;;;;10.49;61.50;99880.39;1643478;85;21780;-60
2021/10/21 04:26:38;;;;;;;18.37;13.53;;;;;;;10.48;61.61;99877.92;1643802;85;21844;-61
2021/10/21 04:29:05;;;;;;;;;;;;;;;10.51;61.61;99881.53;1645769;86;21932;-58
2021/10/21 04:31:31;;;;;;;18.03;15.20;;;;;;;10.54;61.44;99874.97;1646480;85;20274;-63
2021/10/21 04:33:58;;;;;;;21.02;16.97;;;;;;;10.46;61.63;99868.79;1640771;87;21432;-58
2021/10/21 04:36:24;;;;;;;;;;;;;;;10.43;61.85;99864.36;1639042;85;21372;-59
2021/10/21 04:38:50;;;;;;;17.90;14.37;;;;;;;10.36;61.91;99859.02;1644126;85;20172;-59
2021/10/21 04:41:17;;;;;;;21.35;15.63;;;;;;;10.35;62.09;99873.87;1646450;85;21132;-59
2021/10/21 04:43:43;;;;;;;18.87;15.37;;;;;;;10.35;62.09;99873.87;1643550;85;21125;-58
2021/10/21 04:46:09;;;;;;;18.15;14.85;;;;;;;10.36;62.17;99865.69;1612873;87;21040;-58
2021/10/21 04:48:36;;;;;;;21.97;15.90;;;;;;;10.37;62.06;99858.50;1638401;86;21915;-58
2021/10/21 04:51:05;;;;;;;23.50;14.47;;;;;;;10.39;61.97;99858.61;1634022;86;21054;-57
2021/10/21 04:53:32;;;;;;;21.13;14.97;;;;;;;10.43;62.04;99867.03;1635422;86;21057;-60
2021/10/21 04:55:58;;;;;;;;;;;;;;;10.52;61.79;99870.65;1630873;86;21397;-59
2021/10/21 04:58:25;;;;;;;20.23;15.60;;;;;;;10.57;61.62;99875.88;1639177;86;20239;-58
2021/10/21 05:00:51;;;;;;;19.65;15.05;;;;;;;10.50;61.78;99871.87;1635963;86;21361;-59
2021/10/21 05:03:17;;;;;;;19.65;15.32;;;;;;;10.52;61.79;99873.83;1628960;86;21110;-58
2021/10/21 05:05:43;;;;;;;30.97;16.65;;;;;;;10.56;61.67;99880.40;1635607;87;21080;-58
2021/10/21 05:08:09;;;;;;;19.70;15.75;;;;;;;10.65;61.56;99881.06;1630525;86;21061;-59
2021/10/21 05:10:36;;;;;;;17.37;15.48;;;;;;;10.80;61.14;99890.23;1632832;86;21133;-58
2021/10/21 05:13:02;;;;;;;20.50;15.20;;;;;;;11.01;60.67;99894.07;1627455;87;21018;-60
2021/10/21 05:15:28;;;;;;;21.17;15.65;;;;;;;11.22;59.88;99888.26;1611429;87;21390;-59
2021/10/21 05:17:56;;;;;;;23.37;15.70;;;;;;;11.39;59.21;99894.83;1623085;86;21046;-60
2021/10/21 05:20:22;;;;;;;18.30;15.87;;;;;;;11.45;58.79;99884.70;1636337;87;21925;-60
2021/10/21 05:22:49;;;;;;;;;;;;;;;11.49;58.59;99886.45;1599722;87;21044;-58
2021/10/21 05:25:15;;;;;;;17.40;15.53;;;;;;;11.49;58.54;99887.78;1639611;86;20141;-59
2021/10/21 05:27:41;;;;;;;21.87;16.77;;;;;;;11.45;58.65;99880.69;1630507;86;21137;-60
2021/10/21 05:30:09;;;;;;;22.25;16.10;;;;;;;11.56;58.53;99876.56;1638602;86;21030;-60
2021/10/21 05:32:37;;;;;;;17.50;15.10;;;;;;;11.78;57.95;99885.70;1616772;86;21365;-61
2021/10/21 05:35:04;;;;;;;;;;;;;;;12.00;57.42;99883.66;1641802;84;21082;-61
2021/10/21 05:37:30;;;;;;;18.98;15.35;;;;;;;12.21;56.77;99878.56;1637129;86;20237;-59
2021/10/21 05:39:58;;;;;;;18.25;16.35;;;;;;;12.32;56.22;99878.41;1639091;86;21716;-59
2021/10/21 05:42:24;;;;;;;18.37;14.70;;;;;;;12.37;55.93;99879.94;1632764;86;21446;-60
2021/10/21 05:44:50;;;;;;;17.10;14.75;;;;;;;12.53;55.78;99882.14;1634758;85;21077;-60
2021/10/21 05:47:17;;;;;;;18.23;15.25;;;;;;;12.83;54.78;99877.59;1631856;86;21975;-59
2021/10/21 05:49:45;;;;;;;16.97;14.35;;;;;;;13.12;53.95;99876.16;1638970;87;21074;-60
2021/10/21 05:52:12;;;;;;;18.45;14.93;;;;;;;13.29;53.19;99869.75;1637281;86;21053;-60
2021/10/21 05:54:38;;;;;;;19.37;14.60;;;;;;;13.43;52.80;99874.54;1637513;86;21062;-59
2021/10/21 05:57:04;;;;;;;17.27;15.48;;;;;;;13.35;52.75;99876.94;1616724;85;21021;-62
2021/10/21 05:59:31;;;;;;;18.12;13.45;;;;;;;13.19;53.21;99878.27;1628158;86;21193;-59
2021/10/21 06:01:57;;;;;;;22.52;15.23;;;;;;;13.02;53.50;99877.16;1625190;86;21036;-59
2021/10/21 06:04:23;;;;;;;19.02;14.55;;;;;;;12.86;54.01;99883.82;1634888;86;21216;-60
2021/10/21 06:06:49;;;;;;;16.52;14.73;;;;;;;12.68;54.45;99877.86;1626491;86;21062;-59
2021/10/21 06:09:20;;;;;;;18.62;14.33;;;;;;;12.47;55.17;99887.02;1639036;86;21433;-62
2021/10/21 06:11:43;;;;;;;16.93;13.20;;;;;;;12.32;55.54;99882.41;1624112;86;21049;-59
2021/10/21 06:14:09;;;;;;;24.10;14.15;;;;;;;12.19;56.00;99884.11;1635824;86;21034;-58
2021/10/21 06:16:36;;;;;;;19.50;15.18;;;;;;;12.14;56.17;99887.92;1635517;86;21086;-59
2021/10/21 06:19:03;;;;;;;19.07;15.50;;;;;;;12.10;56.39;99888.04;1628037;86;21021;-60
2021/10/21 06:21:29;;;;;;;15.85;14.18;;;;;;;12.10;56.52;99889.90;1634158;86;21032;-60
2021/10/21 06:23:56;;;;;;;17.37;14.63;;;;;;;12.17;56.75;99886.17;1610306;87;21395;-60
2021/10/21 06:26:22;;;;;;;16.77;14.38;;;;;;;12.28;56.16;99887.36;1607775;87;21123;-60
2021/10/21 06:28:51;;;;;;;;;;;;;;;12.34;55.98;99879.86;1641465;86;21909;-60
2021/10/21 06:31:19;;;;;;;16.55;13.98;;;;;;;12.37;55.72;99870.58;1639235;86;20153;-64
2021/10/21 06:33:46;;;;;;;19.30;12.98;;;;;;;12.37;55.83;99868.72;1623215;86;21337;-59
2021/10/21 06:36:13;;;;;;;19.85;14.95;;;;;;;12.39;55.45;99862.65;1632961;86;21796;-60
2021/10/21 06:38:40;;;;;;;18.42;13.80;;;;;;;12.51;55.34;99867.33;1611656;87;21438;-63
2021/10/21 06:41:06;;;;;;;23.47;17.07;;;;;;;12.61;55.06;99874.39;1638500;86;21061;-59
2021/10/21 06:43:33;;;;;;;16.55;13.38;;;;;;;12.66;54.82;99874.06;1632873;86;21122;-61
2021/10/21 06:46:03;;;;;;;24.70;15.00;;;;;;;12.74;54.63;99868.17;1628634;84;21061;-59
2021/10/21 06:48:30;;;;;;;15.65;13.95;;;;;;;12.76;54.27;99875.45;1626268;86;21037;-60
2021/10/21 06:50:56;;;;;;;15.13;13.48;;;;;;;12.79;54.31;99878.52;1586530;89;21055;-63
2021/10/21 06:53:22;;;;;;;18.37;14.15;;;;;;;12.80;54.21;99870.79;1637196;86;21077;-59
2021/10/21 06:55:48;;;;;;;17.23;13.75;;;;;;;12.78;54.17;99859.48;1632795;86;21039;-58
2021/10/21 06:58:15;;;;;;;20.52;12.68;;;;;;;12.77;54.17;99855.69;1632570;86;21415;-59
2021/10/21 07:00:42;;;;;;;16.70;14.75;;;;;;;12.73;54.10;99843.78;1635419;86;21793;-62
2021/10/21 07:03:09;;;;;;;16.25;12.43;;;;;;;12.81;54.17;99861.75;1624479;86;21153;-61
2021/10/21 07:05:43;;;;;;;17.17;13.85;;;;;;;12.83;54.04;99852.17;1630422;86;21071;-62
2021/10/21 07:08:07;;;;;;;16.60;14.20;;;;;;;12.83;54.03;99848.97;1626782;86;21364;-59
2021/10/21 07:10:33;;;;;;;23.15;13.98;;;;;;;12.84;54.05;99860.48;1638368;86;21075;-60
2021/10/21 07:13:05;;;;;;;15.58;11.97;;;;;;;12.92;54.19;99860.75;1628853;86;21804;-59
2021/10/21 07:15:33;;;;;;;17.57;13.58;;;;;;;13.07;53.86;99857.77;1626918;87;21860;-60
2021/10/21 07:18:00;;;;;;;24.35;14.63;;;;;;;13.25;53.45;99861.87;1621046;86;21058;-61
2021/10/21 07:20:26;;;;;;;15.72;13.95;;;;;;;13.43;52.97;99870.52;1634515;86;21043;-62
2021/10/21 07:22:52;;;;;;;;;;;;;;;13.59;52.43;99869.95;1632276;87;21055;-60
2021/10/21 07:25:20;;;;;;;18.90;13.40;;;;;;;13.70;51.89;99864.41;1630768;86;20580;-63
2021/10/21 07:27:46;;;;;;;15.72;13.95;;;;;;;13.40;51.71;99808.85;1635175;86;21327;-61
2021/10/21 07:30:14;;;;;;;17.27;13.95;;;;;;;13.64;51.55;99853.24;1622769;86;21181;-62
2021/10/21 07:32:41;;;;;;;16.37;12.73;;;;;;;13.72;51.61;99852.14;1627879;86;21365;-63
2021/10/21 07:35:09;;;;;;;21.33;14.35;;;;;;;13.75;51.29;99849.84;1618608;86;21046;-61
2021/10/21 07:37:36;;;;;;;23.38;13.50;;;;;;;13.79;51.40;99849.69;1634872;87;21919;-63
2021/10/21 07:40:06;;;;;;;18.62;13.28;;;;;;;13.85;51.15;99844.50;1633452;86;21924;-63
2021/10/21 07:42:34;;;;;;;14.53;13.00;;;;;;;13.90;50.95;99843.29;1635901;87;21307;-61
2021/10/21 07:45:01;;;;;;;19.85;13.28;;;;;;;13.92;51.06;99843.88;1636055;86;21420;-62
2021/10/21 07:47:27;;;;;;;15.30;13.13;;;;;;;13.96;51.20;99834.38;1616292;87;21855;-62
2021/10/21 07:49:53;;;;;;;17.67;13.80;;;;;;;13.99;50.79;99830.73;1622024;86;21109;-63
2021/10/21 07:52:25;;;;;;;16.32;13.15;;;;;;;14.01;50.92;99826.47;1639537;86;21328;-63
2021/10/21 07:54:52;;;;;;;17.65;13.68;;;;;;;14.01;50.89;99818.44;1630169;86;21829;-60
2021/10/21 07:57:24;;;;;;;13.90;12.50;;;;;;;14.00;50.88;99828.88;1578098;89;21085;-61
2021/10/21 07:59:48;;;;;;;21.42;14.10;;;;;;;13.96;51.01;99818.31;1632025;86;21113;-61
2021/10/21 08:02:15;;;;;;;;;;;;;;;13.92;51.06;99822.45;1632201;86;21154;-62
2021/10/21 08:04:42;;;;;;;17.42;13.43;;;;;;;13.92;51.15;99815.75;1629939;86;20198;-63
2021/10/21 08:07:08;;;;;;;20.45;13.13;;;;;;;13.87;51.41;99818.30;1639039;86;21320;-62
2021/10/21 08:09:34;;;;;;;14.98;13.48;;;;;;;13.87;51.28;99817.77;1628917;86;21057;-63
2021/10/21 08:12:05;;;;;;;19.70;14.15;;;;;;;13.88;51.27;99806.03;1630986;86;21116;-61
2021/10/21 08:14:32;;;;;;;17.57;13.05;;;;;;;13.89;51.27;99806.31;1633236;86;21039;-61
2021/10/21 08:16:58;;;;;;;;;;;;;;;13.93;51.03;99800.80;1638867;86;21151;-60
2021/10/21 08:19:29;;;;;;;17.10;13.62;;;;;;;13.95;51.08;99792.02;1630976;86;20196;-62
2021/10/21 08:21:56;;;;;;;17.45;14.13;;;;;;;13.92;50.99;99790.30;1631739;86;21417;-62
2021/10/21 08:24:23;;;;;;;23.42;14.47;;;;;;;13.96;50.99;99786.16;1611804;86;21750;-62
2021/10/21 08:26:52;;;;;;;14.43;12.93;;;;;;;14.01;50.99;99779.58;1637921;86;21903;-61
2021/10/21 08:29:22;;;;;;;20.23;14.50;;;;;;;14.04;50.89;99776.46;1639966;86;21018;-61
2021/10/21 08:31:49;;;;;;;14.10;12.68;;;;;;;14.05;50.88;99766.02;1632206;86;21033;-60
2021/10/21 08:34:15;;;;;;;21.55;13.70;;;;;;;13.98;50.96;99758.61;1637140;86;20998;-60
2021/10/21 08:36:41;;;;;;;18.23;13.10;;;;;;;14.05;51.03;99764.69;1626916;86;21474;-61
2021/10/21 08:39:07;;;;;;;20.52;13.78;;;;;;;13.95;50.94;99738.95;1631435;86;21113;-60
2021/10/21 08:41:34;;;;;;;16.57;14.55;;;;;;;14.14;50.85;99759.84;1629313;86;21093;-61
2021/10/21 08:44:01;;;;;;;15.35;13.10;;;;;;;14.23;50.72;99763.05;1639012;86;21064;-60
2021/10/21 08:46:27;;;;;;;15.53;13.90;;;;;;;14.31;50.65;99760.03;1635834;86;21079;-62
2021/10/21 08:49:00;;;;;;;18.85;14.50;;;;;;;14.41;50.44;99748.27;1638079;86;21026;-63
2021/10/21 08:51:31;;;;;;;16.60;13.90;;;;;;;14.53;50.12;99744.27;1627500;86;21968;-61
2021/10/21 08:54:00;;;;;;;18.00;14.85;;;;;;;14.60;50.01;99732.95;1632142;87;21284;-61
2021/10/21 08:56:27;;;;;;;16.93;14.68;;;;;;;14.68;49.68;99726.44;1624019;86;21814;-61
2021/10/21 08:58:57;;;;;;;18.07;14.00;;;;;;;14.72;49.65;99732.45;1628295;86;21045;-61
2021/10/21 09:09:25;;;;;;;19.40;13.22;;;;;;;15.02;48.78;99706.59;1627711;86;21078;-62
2021/10/21 09:12:10;;;;;;;22.05;14.40;;;;;;;15.06;48.91;99703.73;1618236;86;21356;-63
2021/10/21 09:14:49;;;;;;;16.87;14.07;;;;;;;15.10;48.66;99686.11;1625213;87;21081;-62
2021/10/21 09:17:18;;;;;;;18.55;14.93;;;;;;;15.16;48.68;99680.63;1627550;86;21318;-62
2021/10/21 09:19:45;;;;;;;18.17;15.05;;;;;;;15.28;48.44;99682.48;1637103;86;21083;-62
2021/10/21 09:22:27;;;;;;;16.10;14.40;;;;;;;15.34;48.38;99682.34;1610784;86;21137;-60
2021/10/21 09:24:56;;;;;;;16.27;14.13;;;;;;;15.42;48.34;99686.54;1626361;86;21079;-61
2021/10/21 09:27:29;;;;;;;16.70;14.73;;;;;;;15.46;48.32;99676.14;1628219;86;21058;-61
2021/10/21 09:29:57;;;;;;;15.80;13.15;;;;;;;15.50;48.15;99674.61;1623919;86;21103;-63
2021/10/21 09:32:32;;;;;;;14.87;13.32;;;;;;;15.54;47.86;99663.71;1634065;86;21089;-63
2021/10/21 09:35:07;;;;;;;13.30;11.93;;;;;;;15.64;47.71;99663.09;1638439;86;20994;-62
2021/10/21 09:37:40;;;;;;;14.47;12.98;;;;;;;15.76;47.61;99658.02;1637540;86;21337;-63
2021/10/21 09:40:13;;;;;;;14.28;11.85;;;;;;;15.84;47.33;99646.06;1631425;86;21426;-62
2021/10/21 09:42:47;;;;;;;15.95;11.97;;;;;;;15.99;46.72;99649.53;1620698;87;21858;-60
2021/10/21 09:45:19;;;;;;;21.07;13.55;;;;;;;16.10;46.25;99655.39;1633169;86;21044;-59
2021/10/21 09:47:53;;;;;;;13.15;11.45;;;;;;;16.21;46.12;99651.55;1608564;87;21078;-61
2021/10/21 09:50:38;;;;;;;13.55;12.28;;;;;;;16.30;46.03;99647.41;1639432;86;21831;-61
2021/10/21 09:53:20;;;;;;;12.65;11.35;;;;;;;16.39;45.91;99633.85;1627007;86;21333;-62
2021/10/21 09:56:07;;;;;;;17.70;12.93;;;;;;;16.44;45.20;99638.48;1632335;86;21278;-60
2021/10/21 09:58:39;;;;;;;13.15;10.68;;;;;;;16.47;45.30;99620.52;1630733;86;21232;-62
2021/10/21 10:01:12;;;;;;;13.22;11.93;;;;;;;16.54;45.11;99621.19;1623660;86;21046;-62
2021/10/21 10:03:44;;;;;;;12.85;11.65;;;;;;;16.58;45.04;99620.16;1627530;86;21063;-62
2021/10/21 10:06:14;;;;;;;14.15;11.68;;;;;;;16.58;45.02;99622.32;1616704;86;21034;-61
2021/10/21 10:08:41;;;;;;;17.67;13.15;;;;;;;16.63;44.92;99608.12;1631933;86;21384;-63
2021/10/21 10:11:12;;;;;;;16.27;11.93;;;;;;;16.63;44.88;99598.70;1634961;87;21050;-62
2021/10/21 10:13:40;;;;;;;19.65;12.43;;;;;;;16.63;44.71;99600.05;1564791;89;21052;-62
2021/10/21 10:16:07;;;;;;;15.83;12.25;;;;;;;16.65;44.48;99593.88;1569091;89;21124;-62
2021/10/21 10:18:41;;;;;;;14.83;12.95;;;;;;;16.74;44.48;99592.41;1576353;89;21072;-63
2021/10/21 10:21:21;;;;;;;15.65;14.05;;;;;;;16.82;44.45;99597.42;1573905;89;21315;-62
2021/10/21 10:23:59;;;;;;;16.00;13.70;;;;;;;16.91;44.35;99585.67;1604763;88;21049;-61
2021/10/21 10:26:47;;;;;;;14.70;13.18;;;;;;;17.03;44.35;99584.24;1618360;87;21049;-60
2021/10/21 10:29:18;;;;;;;14.43;12.63;;;;;;;17.16;44.45;99578.48;1637945;85;21188;-62
2021/10/21 10:31:49;;;;;;;16.17;12.07;;;;;;;17.16;44.12;99567.72;1616301;87;21115;-63
2021/10/21 10:34:38;;;;;;;13.30;11.85;;;;;;;17.18;44.21;99556.67;1638141;86;21896;-61
2021/10/21 10:37:19;;;;;;;12.37;11.03;;;;;;;17.19;44.12;99541.61;1624425;86;21049;-63
2021/10/21 10:40:00;;;;;;;18.00;12.03;;;;;;;17.32;43.54;99537.72;1632573;86;21148;-61
2021/10/21 10:42:36;;;;;;;19.40;10.40;;;;;;;17.32;43.54;99537.72;1614501;86;21136;-63
2021/10/21 10:45:09;;;;;;;15.30;10.50;;;;;;;17.43;43.48;99527.88;1605021;87;21264;-62
2021/10/21 10:47:49;;;;;;;13.28;11.93;;;;;;;17.54;43.17;99532.31;1633307;86;21182;-61
2021/10/21 10:50:29;;;;;;;15.00;11.18;;;;;;;17.52;43.16;99518.28;1599735;87;21291;-61
2021/10/21 10:53:01;;;;;;;13.32;10.68;;;;;;;17.48;43.31;99530.64;1626378;86;21026;-64
2021/10/21 10:55:47;;;;;;;14.13;11.00;;;;;;;17.37;43.60;99527.56;1635483;86;21076;-61
2021/10/21 10:58:20;;;;;;;13.85;10.78;;;;;;;17.30;43.92;99520.47;1635452;86;21922;-61
2021/10/21 11:00:56;;;;;;;18.17;10.30;;;;;;;17.20;43.70;99506.90;1627335;86;21014;-62
2021/10/21 11:03:45;;;;;;;12.90;10.68;;;;;;;17.20;43.70;99506.90;1634332;86;21061;-63
2021/10/21 11:06:17;;;;;;;11.60;10.40;;;;;;;17.17;43.78;99504.70;1609906;86;21096;-62
2021/10/21 11:09:08;;;;;;;14.05;11.15;;;;;;;17.17;43.78;99504.70;1599650;87;21041;-61
2021/10/21 11:11:49;;;;;;;11.20;10.18;;;;;;;17.22;43.48;99510.69;1621734;86;21250;-61
2021/10/21 11:14:21;;;;;;;13.48;9.85;;;;;;;17.22;43.48;99510.69;1625543;86;21090;-62
2021/10/21 11:16:52;;;;;;;15.83;9.98;;;;;;;17.30;43.44;99504.30;1633768;86;21141;-63
2021/10/21 11:19:43;;;;;;;11.75;10.55;;;;;;;17.30;43.44;99504.30;1625280;86;21006;-63
2021/10/21 11:22:25;;;;;;;17.92;10.98;;;;;;;17.35;43.56;99498.69;1615777;87;21058;-62
2021/10/21 11:24:58;;;;;;;16.57;10.80;;;;;;;17.34;43.38;99487.11;1633720;86;21068;-63
2021/10/21 11:27:39;;;;;;;12.70;10.18;;;;;;;17.34;43.38;99487.11;1639109;86;21141;-59
2021/10/21 11:30:23;;;;;;;12.28;10.58;;;;;;;17.36;43.47;99474.73;1631276;86;21266;-63
2021/10/21 11:32:53;;;;;;;14.55;9.93;;;;;;;17.36;43.47;99474.73;1629793;86;21129;-62
2021/10/21 11:35:23;;;;;;;17.87;9.53;;;;;;;17.37;43.21;99472.34;1626557;86;21745;-61
2021/10/21 11:37:54;;;;;;;14.65;9.83;;;;;;;17.35;42.92;99467.71;1620337;86;21131;-63